This is the latest recevied weather packets stored in our database for station/object DL1GRJ-13. If no packets are shown the sender has not sent any weather packets the latest 1 day(s).
| Time | Temp. | Humidity | Pressure | Rain* | Wind** | Luminosity | Snow |
|---|---|---|---|---|---|---|---|
| 1777788057 | 12.78° C | 58% | 1018.3 hPa | - | - | - | - |
| 1777786257 | 12.78° C | 55% | 1018.1 hPa | - | - | - | - |
| 1777784457 | 12.22° C | 56% | 1018 hPa | - | - | - | - |
| 1777782657 | 12.22° C | 56% | 1018.2 hPa | - | - | - | - |
| 1777780857 | 12.22° C | 55% | 1018.2 hPa | - | - | - | - |
| 1777779056 | 12.22° C | 55% | 1018.3 hPa | - | - | - | - |
| 1777777256 | 12.78° C | 54% | 1018.3 hPa | - | - | - | - |
| 1777775456 | 12.78° C | 54% | 1018.3 hPa | - | - | - | - |
| 1777773656 | 12.78° C | 55% | 1018.6 hPa | - | - | - | - |
| 1777771856 | 13.33° C | 53% | 1018.7 hPa | - | - | - | - |
| 1777770056 | 13.33° C | 54% | 1018.8 hPa | - | - | - | - |
| 1777768256 | 13.33° C | 52% | 1019.2 hPa | - | - | - | - |
| 1777766455 | 13.89° C | 51% | 1019.3 hPa | - | - | - | - |
| 1777764655 | 13.89° C | 49% | 1019.5 hPa | - | - | - | - |
| 1777762855 | 14.44° C | 47% | 1019.6 hPa | - | - | - | - |
| 1777761055 | 13.89° C | 49% | 1019.8 hPa | - | - | - | - |
| 1777759255 | 14.44° C | 49% | 1019.7 hPa | - | - | - | - |
| 1777755655 | 15° C | 48% | 1019.7 hPa | - | - | - | - |
| 1777753855 | 15.56° C | 48% | 1019.8 hPa | - | - | - | - |
| 1777752054 | 15.56° C | 47% | 1019.9 hPa | - | - | - | - |
| 1777750254 | 16.67° C | 45% | 1019.8 hPa | - | - | - | - |
| 1777748454 | 18.33° C | 41% | 1019.8 hPa | - | - | - | - |
| 1777746654 | 19.44° C | 38% | 1019.7 hPa | - | - | - | - |
| 1777744854 | 22.22° C | 34% | 1019.5 hPa | - | - | - | - |
| 1777743054 | 25° C | 29% | 1019.3 hPa | - | - | - | - |
* Rain since midnight (hover to see other rain measurements)
** Current wind speed in m/s (hover to see current wind gust speed)